Helliar — 2EPP5 — position and weather

sailwx.info

Track history (hours):
 
Tides and Currents Weather Stations Pressure Air Temp Water Temp Dewpoint Dewpoint Depression Visibility Wind Speed Wind Dir Waves Ship Positions

Helliar

Last reported at 2015-Mar-31 12:33 UTC. Time now 2015-Mar-31 12:42 UTC.
Position N 57°09' W 002°05'.

Length 122 m; draft 5.4 m.

Type: Cargo ship. MMSI: 235087119.

Date/timePositionNaut miles runAvg speedWind from/ knotsBaromVisibWave heightAir tempDewpointWater temp
2015-Mar-31 12:33N 57°09' W 002°05'0 0.0
2015-Mar-31 11:33N 57°09' W 002°05'0 0.0
2015-Mar-31 10:33N 57°09' W 002°05'0 0.0
2015-Mar-31 09:30N 57°09' W 002°05'0 0.0
2015-Mar-31 08:30N 57°09' W 002°05'0 0.0
2015-Mar-31 07:30N 57°09' W 002°05'0 0.0
2015-Mar-31 06:30N 57°09' W 002°05'0 0.0
2015-Mar-31 05:30N 57°09' W 002°05'3 2.8
2015-Mar-31 04:33N 57°10' W 002°01'1410.8
2015-Mar-31 03:13N 57°22' W 001°47'914.3
2015-Mar-31 02:33N 57°31' W 001°44'1514.7
2015-Mar-31 01:33N 57°46' W 001°49'7314.6
2015-Mar-30 20:33N 58°54' W 002°36'1312.6
2015-Mar-30 19:33N 59°00' W 002°58'0 0.5
2015-Mar-30 18:33N 58°60' W 002°58'0 0.0
2015-Mar-30 17:33N 58°60' W 002°58'0 0.0
2015-Mar-30 16:33N 58°60' W 002°58'0 0.0
2015-Mar-30 15:33N 58°60' W 002°58'0 0.0
2015-Mar-30 14:33N 58°60' W 002°58'0 0.0
2015-Mar-30 13:33N 58°60' W 002°58'0 0.0
2015-Mar-30 12:33N 58°60' W 002°58'0 0.0
2015-Mar-30 11:33N 58°60' W 002°58'0 0.0
2015-Mar-30 10:33N 58°60' W 002°58'0 0.0
2015-Mar-30 09:33N 58°60' W 002°58'0 0.0
2015-Mar-30 08:33N 58°60' W 002°58'0 0.0
2015-Mar-30 07:33N 58°60' W 002°58'0 0.0
2015-Mar-30 06:33N 58°60' W 002°58'0 0.0
2015-Mar-30 05:33N 58°60' W 002°58'4 3.7
2015-Mar-30 04:33N 59°01' W 002°51'1110.6
2015-Mar-30 03:33N 58°53' W 002°38'1111.3
2015-Mar-30 02:33N 58°41' W 002°41'5911.7
2015-Mar-29 21:33N 57°49' W 001°51'1010.4
2015-Mar-29 20:33N 57°39' W 001°45'1010.3
2015-Mar-29 19:33N 57°29' W 001°43'2211.2
2015-Mar-29 17:33N 57°09' W 002°03'2 1.5
2015-Mar-29 16:33N 57°09' W 002°05'0 0.0
2015-Mar-29 15:33N 57°09' W 002°05'0 0.0
2015-Mar-29 14:33N 57°09' W 002°05'0 0.0
2015-Mar-29 13:33N 57°09' W 002°05'0 0.2
2015-Mar-29 12:33N 57°09' W 002°05'1812.0
2015-Mar-29 11:05N 57°23' W 001°47'814.4
2015-Mar-29 10:33N 57°30' W 001°43'1515.0
2015-Mar-29 09:33N 57°45' W 001°41'81 2.7
2015-Mar-28 03:33N 59°02' W 002°30'1414.0
2015-Mar-28 02:33N 59°01' W 002°57'1 0.9
2015-Mar-28 01:33N 58°60' W 002°58'9 8.5
2015-Mar-28 00:33N 58°59' W 002°42'7514.8
2015-Mar-27 19:30N 57°49' W 001°52'1313.5
2015-Mar-27 18:33N 57°37' W 001°43'1212.1
2015-Mar-27 17:33N 57°25' W 001°45'1613.5
2015-Mar-27 16:22N 57°11' W 001°59'4 4.6
2015-Mar-27 15:30N 57°09' W 002°05'0 0.0
2015-Mar-27 14:30N 57°09' W 002°05'0 0.0
2015-Mar-27 13:30N 57°09' W 002°05'0 0.0
2015-Mar-27 12:30N 57°09' W 002°05'0 0.0
2015-Mar-27 11:30N 57°09' W 002°05'0 0.0
2015-Mar-27 10:30N 57°09' W 002°05'0 0.0
2015-Mar-27 09:30N 57°09' W 002°05'0 0.0
2015-Mar-27 08:30N 57°09' W 002°05'0 0.3
2015-Mar-27 07:33N 57°09' W 002°05'2412.2
2015-Mar-27 05:33N 57°28' W 001°37'1313.4
2015-Mar-27 04:33N 57°41' W 001°35'6 0.2
2015-Mar-25 20:19N 57°48' W 001°38'1114.6
2015-Mar-25 19:33N 57°37' W 001°41'1413.9
2015-Mar-25 18:33N 57°23' W 001°45'1413.8
2015-Mar-25 17:33N 57°11' W 001°58'5 4.4
2015-Mar-25 16:31N 57°09' W 002°05'0 0.0
2015-Mar-25 15:31N 57°09' W 002°05'0 0.0
2015-Mar-25 14:31N 57°09' W 002°05'0 0.0
2015-Mar-25 13:31N 57°09' W 002°05'0 0.0
2015-Mar-25 12:31N 57°09' W 002°05'0 0.0
2015-Mar-25 11:31N 57°09' W 002°05'0 0.0
2015-Mar-25 10:31N 57°09' W 002°05'0 0.0
2015-Mar-25 09:31N 57°09' W 002°05'0 0.0
2015-Mar-25 08:31N 57°09' W 002°05'0 0.0
2015-Mar-25 07:31N 57°09' W 002°05'0 0.0
2015-Mar-25 06:31N 57°09' W 002°05'0 0.0
2015-Mar-25 05:31N 57°09' W 002°05'0 0.0
2015-Mar-25 04:31N 57°09' W 002°05'0 0.0
2015-Mar-25 03:31N 57°09' W 002°05'0 0.0
2015-Mar-25 02:31N 57°09' W 002°05'0 0.0
2015-Mar-25 01:31N 57°09' W 002°05'0 0.0
2015-Mar-25 00:28N 57°09' W 002°05'0 0.0
2015-Mar-24 23:31N 57°09' W 002°05'0 0.0
2015-Mar-24 22:31N 57°09' W 002°05'0 0.0
2015-Mar-24 21:31N 57°09' W 002°05'0 0.0
2015-Mar-24 20:31N 57°09' W 002°05'0 0.0
2015-Mar-24 19:31N 57°09' W 002°05'0 0.0
2015-Mar-24 18:31N 57°09' W 002°05'0 0.0
2015-Mar-24 17:31N 57°09' W 002°05'0 0.0
2015-Mar-24 16:31N 57°09' W 002°05'0 0.0
2015-Mar-24 15:31N 57°09' W 002°05'0 0.0
2015-Mar-24 14:31N 57°09' W 002°05'0 0.0
2015-Mar-24 13:31N 57°09' W 002°05'0 0.0
2015-Mar-24 12:31N 57°09' W 002°05'0 0.0
2015-Mar-24 11:31N 57°09' W 002°05'0 0.0
2015-Mar-24 10:34N 57°09' W 002°05'0 0.0
2015-Mar-24 09:31N 57°09' W 002°05'0 0.0
2015-Mar-24 08:31N 57°09' W 002°05'0 0.0
2015-Mar-24 07:34N 57°09' W 002°05'0 0.0
2015-Mar-24 06:34N 57°09' W 002°05'2 1.9
2015-Mar-24 05:32N 57°09' W 002°02'11112.4
2015-Mar-23 20:33N 58°59' W 002°41'9 8.7
2015-Mar-23 19:32N 58°60' W 002°58'0 0.0
2015-Mar-23 18:32N 58°60' W 002°58'0 0.0
2015-Mar-23 17:32N 58°60' W 002°58'0 0.0
2015-Mar-23 16:32N 58°60' W 002°58'0 0.0
2015-Mar-23 15:32N 58°60' W 002°58'0 0.0
2015-Mar-23 14:32N 58°60' W 002°58'0 0.0
2015-Mar-23 13:32N 58°60' W 002°58'0 0.0
2015-Mar-23 12:29N 58°60' W 002°58'0 0.0
2015-Mar-23 11:32N 58°60' W 002°58'0 0.0
2015-Mar-23 10:32N 58°60' W 002°58'0 0.0
2015-Mar-23 09:32N 58°60' W 002°58'0 0.0
2015-Mar-23 08:32N 58°60' W 002°58'0 0.0
2015-Mar-23 07:32N 58°60' W 002°58'0 0.0
2015-Mar-23 06:32N 58°60' W 002°58'0 0.0
2015-Mar-23 05:29N 58°60' W 002°58'0 0.0
2015-Mar-23 04:32N 58°60' W 002°58'0 0.0
2015-Mar-23 03:32N 58°60' W 002°58'0 0.0
2015-Mar-23 02:32N 58°60' W 002°58'0 0.0
2015-Mar-23 01:32N 58°60' W 002°58'0 0.0
2015-Mar-23 00:32N 58°60' W 002°58'1 1.5
2015-Mar-22 23:33N 59°01' W 002°57'8 8.1
2015-Mar-22 22:33N 59°00' W 002°41'80 3.1
2015-Mar-21 20:22N 57°47' W 001°39'1113.5
2015-Mar-21 19:33N 57°37' W 001°41'1414.3
2015-Mar-21 18:32N 57°22' W 001°46'1713.2
2015-Mar-21 17:16N 57°09' W 002°04'0 0.5
2015-Mar-21 16:18N 57°09' W 002°05'0 0.0
2015-Mar-21 15:30N 57°09' W 002°05'0 0.0
2015-Mar-21 14:33N 57°09' W 002°05'0 0.0
2015-Mar-21 13:33N 57°09' W 002°05'0 0.0
2015-Mar-21 12:33N 57°09' W 002°05'  
Track history (hours):
 
Tides and Currents Weather Stations Pressure Air Temp Water Temp Dewpoint Dewpoint Depression Visibility Wind Speed Wind Dir Waves Ship Positions

Helliar

Last reported at 2015-Mar-31 12:33 UTC. Time now 2015-Mar-31 12:42 UTC.
Position N 57°09' W 002°05'.

Length 122 m; draft 5.4 m.

Type: Cargo ship. MMSI: 235087119.

Date/timePositionNaut miles runAvg speedWind from/ knotsBaromVisibWave heightAir tempDewpointWater temp
2015-Mar-31 12:33N 57°09' W 002°05'0 0.0
2015-Mar-31 11:33N 57°09' W 002°05'0 0.0
2015-Mar-31 10:33N 57°09' W 002°05'0 0.0
2015-Mar-31 09:30N 57°09' W 002°05'0 0.0
2015-Mar-31 08:30N 57°09' W 002°05'0 0.0
2015-Mar-31 07:30N 57°09' W 002°05'0 0.0
2015-Mar-31 06:30N 57°09' W 002°05'0 0.0
2015-Mar-31 05:30N 57°09' W 002°05'3 2.8
2015-Mar-31 04:33N 57°10' W 002°01'1410.8
2015-Mar-31 03:13N 57°22' W 001°47'914.3
2015-Mar-31 02:33N 57°31' W 001°44'1514.7
2015-Mar-31 01:33N 57°46' W 001°49'7314.6
2015-Mar-30 20:33N 58°54' W 002°36'1312.6
2015-Mar-30 19:33N 59°00' W 002°58'0 0.5
2015-Mar-30 18:33N 58°60' W 002°58'0 0.0
2015-Mar-30 17:33N 58°60' W 002°58'0 0.0
2015-Mar-30 16:33N 58°60' W 002°58'0 0.0
2015-Mar-30 15:33N 58°60' W 002°58'0 0.0
2015-Mar-30 14:33N 58°60' W 002°58'0 0.0
2015-Mar-30 13:33N 58°60' W 002°58'0 0.0
2015-Mar-30 12:33N 58°60' W 002°58'0 0.0
2015-Mar-30 11:33N 58°60' W 002°58'0 0.0
2015-Mar-30 10:33N 58°60' W 002°58'0 0.0
2015-Mar-30 09:33N 58°60' W 002°58'0 0.0
2015-Mar-30 08:33N 58°60' W 002°58'0 0.0
2015-Mar-30 07:33N 58°60' W 002°58'0 0.0
2015-Mar-30 06:33N 58°60' W 002°58'0 0.0
2015-Mar-30 05:33N 58°60' W 002°58'4 3.7
2015-Mar-30 04:33N 59°01' W 002°51'1110.6
2015-Mar-30 03:33N 58°53' W 002°38'1111.3
2015-Mar-30 02:33N 58°41' W 002°41'5911.7
2015-Mar-29 21:33N 57°49' W 001°51'1010.4
2015-Mar-29 20:33N 57°39' W 001°45'1010.3
2015-Mar-29 19:33N 57°29' W 001°43'2211.2
2015-Mar-29 17:33N 57°09' W 002°03'2 1.5
2015-Mar-29 16:33N 57°09' W 002°05'0 0.0
2015-Mar-29 15:33N 57°09' W 002°05'0 0.0
2015-Mar-29 14:33N 57°09' W 002°05'0 0.0
2015-Mar-29 13:33N 57°09' W 002°05'0 0.2
2015-Mar-29 12:33N 57°09' W 002°05'1812.0
2015-Mar-29 11:05N 57°23' W 001°47'814.4
2015-Mar-29 10:33N 57°30' W 001°43'1515.0
2015-Mar-29 09:33N 57°45' W 001°41'81 2.7
2015-Mar-28 03:33N 59°02' W 002°30'1414.0
2015-Mar-28 02:33N 59°01' W 002°57'1 0.9
2015-Mar-28 01:33N 58°60' W 002°58'9 8.5
2015-Mar-28 00:33N 58°59' W 002°42'7514.8
2015-Mar-27 19:30N 57°49' W 001°52'1313.5
2015-Mar-27 18:33N 57°37' W 001°43'1212.1
2015-Mar-27 17:33N 57°25' W 001°45'1613.5
2015-Mar-27 16:22N 57°11' W 001°59'4 4.6
2015-Mar-27 15:30N 57°09' W 002°05'0 0.0
2015-Mar-27 14:30N 57°09' W 002°05'0 0.0
2015-Mar-27 13:30N 57°09' W 002°05'0 0.0
2015-Mar-27 12:30N 57°09' W 002°05'0 0.0
2015-Mar-27 11:30N 57°09' W 002°05'0 0.0
2015-Mar-27 10:30N 57°09' W 002°05'0 0.0
2015-Mar-27 09:30N 57°09' W 002°05'0 0.0
2015-Mar-27 08:30N 57°09' W 002°05'0 0.3
2015-Mar-27 07:33N 57°09' W 002°05'2412.2
2015-Mar-27 05:33N 57°28' W 001°37'1313.4
2015-Mar-27 04:33N 57°41' W 001°35'6 0.2
2015-Mar-25 20:19N 57°48' W 001°38'1114.6
2015-Mar-25 19:33N 57°37' W 001°41'1413.9
2015-Mar-25 18:33N 57°23' W 001°45'1413.8
2015-Mar-25 17:33N 57°11' W 001°58'5 4.4
2015-Mar-25 16:31N 57°09' W 002°05'0 0.0
2015-Mar-25 15:31N 57°09' W 002°05'0 0.0
2015-Mar-25 14:31N 57°09' W 002°05'0 0.0
2015-Mar-25 13:31N 57°09' W 002°05'0 0.0
2015-Mar-25 12:31N 57°09' W 002°05'0 0.0
2015-Mar-25 11:31N 57°09' W 002°05'0 0.0
2015-Mar-25 10:31N 57°09' W 002°05'0 0.0
2015-Mar-25 09:31N 57°09' W 002°05'0 0.0
2015-Mar-25 08:31N 57°09' W 002°05'0 0.0
2015-Mar-25 07:31N 57°09' W 002°05'0 0.0
2015-Mar-25 06:31N 57°09' W 002°05'0 0.0
2015-Mar-25 05:31N 57°09' W 002°05'0 0.0
2015-Mar-25 04:31N 57°09' W 002°05'0 0.0
2015-Mar-25 03:31N 57°09' W 002°05'0 0.0
2015-Mar-25 02:31N 57°09' W 002°05'0 0.0
2015-Mar-25 01:31N 57°09' W 002°05'0 0.0
2015-Mar-25 00:28N 57°09' W 002°05'0 0.0
2015-Mar-24 23:31N 57°09' W 002°05'0 0.0
2015-Mar-24 22:31N 57°09' W 002°05'0 0.0
2015-Mar-24 21:31N 57°09' W 002°05'0 0.0
2015-Mar-24 20:31N 57°09' W 002°05'0 0.0
2015-Mar-24 19:31N 57°09' W 002°05'0 0.0
2015-Mar-24 18:31N 57°09' W 002°05'0 0.0
2015-Mar-24 17:31N 57°09' W 002°05'0 0.0
2015-Mar-24 16:31N 57°09' W 002°05'0 0.0
2015-Mar-24 15:31N 57°09' W 002°05'0 0.0
2015-Mar-24 14:31N 57°09' W 002°05'0 0.0
2015-Mar-24 13:31N 57°09' W 002°05'0 0.0
2015-Mar-24 12:31N 57°09' W 002°05'0 0.0
2015-Mar-24 11:31N 57°09' W 002°05'0 0.0
2015-Mar-24 10:34N 57°09' W 002°05'0 0.0
2015-Mar-24 09:31N 57°09' W 002°05'0 0.0
2015-Mar-24 08:31N 57°09' W 002°05'0 0.0
2015-Mar-24 07:34N 57°09' W 002°05'0 0.0
2015-Mar-24 06:34N 57°09' W 002°05'2 1.9
2015-Mar-24 05:32N 57°09' W 002°02'11112.4
2015-Mar-23 20:33N 58°59' W 002°41'9 8.7
2015-Mar-23 19:32N 58°60' W 002°58'0 0.0
2015-Mar-23 18:32N 58°60' W 002°58'0 0.0
2015-Mar-23 17:32N 58°60' W 002°58'0 0.0
2015-Mar-23 16:32N 58°60' W 002°58'0 0.0
2015-Mar-23 15:32N 58°60' W 002°58'0 0.0
2015-Mar-23 14:32N 58°60' W 002°58'0 0.0
2015-Mar-23 13:32N 58°60' W 002°58'0 0.0
2015-Mar-23 12:29N 58°60' W 002°58'0 0.0
2015-Mar-23 11:32N 58°60' W 002°58'0 0.0
2015-Mar-23 10:32N 58°60' W 002°58'0 0.0
2015-Mar-23 09:32N 58°60' W 002°58'0 0.0
2015-Mar-23 08:32N 58°60' W 002°58'0 0.0
2015-Mar-23 07:32N 58°60' W 002°58'0 0.0
2015-Mar-23 06:32N 58°60' W 002°58'0 0.0
2015-Mar-23 05:29N 58°60' W 002°58'0 0.0
2015-Mar-23 04:32N 58°60' W 002°58'0 0.0
2015-Mar-23 03:32N 58°60' W 002°58'0 0.0
2015-Mar-23 02:32N 58°60' W 002°58'0 0.0
2015-Mar-23 01:32N 58°60' W 002°58'0 0.0
2015-Mar-23 00:32N 58°60' W 002°58'1 1.5
2015-Mar-22 23:33N 59°01' W 002°57'8 8.1
2015-Mar-22 22:33N 59°00' W 002°41'80 3.1
2015-Mar-21 20:22N 57°47' W 001°39'1113.5
2015-Mar-21 19:33N 57°37' W 001°41'1414.3
2015-Mar-21 18:32N 57°22' W 001°46'1713.2
2015-Mar-21 17:16N 57°09' W 002°04'0 0.5
2015-Mar-21 16:18N 57°09' W 002°05'0 0.0
2015-Mar-21 15:30N 57°09' W 002°05'0 0.0
2015-Mar-21 14:33N 57°09' W 002°05'0 0.0
2015-Mar-21 13:33N 57°09' W 002°05'0 0.0
2015-Mar-21 12:33N 57°09' W 002°05'  

Dump ship's entire track history